Qazvin Airport

Airport
ICAO code: 
OIIK
IATA Code: 
GZW
Summary
ICAO Region: 
MID
Territory: 
Location: 
Qazvin, Qazvin Province
Serving: 
Qazvin
Elevation: 
4184 ft
Coordinates: 
Aerial View: 
36° 14' 34.773" N, 50° 2' 49.567" E
Metar
Observation
OIIK 030900Z 32006KT CAVOK 30/11 Q1007
Station
Ghazvin
Date/Time
2022-07-03 09:00:00
Wind direction
320°
Wind speed
06 kts
Lowest cloud amount
clouds and visibility OK
Temperature
30°C
Dew point
11°C
Humidity
30%
QNH
1007 hPa
Weather condition
n/a

Airport located on the eastern outskirts of the city of Qazvin, Iran.

Climatology

Warm Mediterranean climate (Köppen climate classification Csa).

Runways

Designator Length Width Surface Rops
10/28 1119 40 ASP No/No
Airport map: 
Aerial View: 

SKYbrary Partners:

Safety knowledge contributed by: